Time;durP1;ratioP1;P1;durP2;ratioP2;P2;SDS_P1;SDS_P2;PMS_P1;PMS_P2;Temp;Humidity;BMP_temperature;BMP_pressure;BME280_temperature;BME280_humidity;BME280_pressure;Samples;Min_cycle;Max_cycle;Signal;HPM_P1;HPM_P2
2022/06/03 00:02:57;;;;;;;8.18;3.37;;;;;;;17.70;100.00;97855.98;1504697;95;21143;-73
2022/06/03 00:05:29;;;;;;;7.97;3.58;;;;;;;17.69;100.00;97874.86;1481488;97;21073;-73
2022/06/03 00:08:25;;;;;;;7.25;3.70;;;;;;;17.67;100.00;97886.61;1493489;95;21108;-73
2022/06/03 00:11:17;;;;;;;7.53;3.30;;;;;;;17.66;100.00;97886.33;1553884;92;21062;-73
2022/06/03 00:14:27;;;;;;;6.05;3.25;;;;;;;17.66;100.00;97893.16;1553748;92;21078;-72
2022/06/03 00:17:39;;;;;;;6.33;2.95;;;;;;;17.69;100.00;97900.82;1569027;91;21088;-72
2022/06/03 00:20:31;;;;;;;5.95;2.90;;;;;;;17.72;100.00;97906.28;1569347;89;21057;-72
2022/06/03 00:23:43;;;;;;;6.20;2.85;;;;;;;17.70;100.00;97919.40;1569799;90;21116;-72
2022/06/03 00:26:37;;;;;;;8.40;2.60;;;;;;;17.66;100.00;97930.05;1568822;91;21032;-72
2022/06/03 00:29:16;;;;;;;6.40;2.70;;;;;;;17.59;100.00;97945.32;1565620;89;21554;-73
2022/06/03 00:32:04;;;;;;;6.20;2.35;;;;;;;17.56;100.00;97958.14;1565612;92;21065;-73
2022/06/03 00:34:46;;;;;;;5.15;2.52;;;;;;;17.54;100.00;97969.08;1565459;92;21037;-73
2022/06/03 00:37:24;;;;;;;4.70;2.35;;;;;;;17.52;100.00;97978.09;1570098;89;21076;-72
2022/06/03 00:40:26;;;;;;;2.10;1.85;;;;;;;17.50;100.00;97990.65;1591238;89;21074;-71
2022/06/03 00:43:14;;;;;;;3.80;2.00;;;;;;;17.49;100.00;97989.55;1601444;90;21038;-73
2022/06/03 00:45:59;;;;;;;4.87;2.20;;;;;;;17.46;100.00;97991.73;1601452;90;21069;-73
2022/06/03 00:49:00;;;;;;;5.75;2.12;;;;;;;17.46;100.00;98008.67;1602064;90;21097;-73
2022/06/03 00:51:52;;;;;;;5.45;2.45;;;;;;;17.43;100.00;98005.91;1563978;92;21186;-73
2022/06/03 00:54:44;;;;;;;5.90;2.50;;;;;;;17.41;100.00;98016.84;1555701;92;21075;-72
2022/06/03 00:57:59;;;;;;;4.25;2.33;;;;;;;17.35;100.00;98011.89;1553627;92;21069;-73
2022/06/03 01:00:29;;;;;;;5.15;2.42;;;;;;;17.31;100.00;98012.67;1498776;95;21560;-71
2022/06/03 01:03:18;;;;;;;3.80;2.40;;;;;;;17.26;100.00;98017.03;1505993;95;21158;-72
2022/06/03 01:06:26;;;;;;;3.98;2.45;;;;;;;17.24;100.00;98003.34;1498281;95;21106;-72
2022/06/03 01:09:36;;;;;;;2.50;2.00;;;;;;;17.21;100.00;97994.30;1505274;95;21114;-73
2022/06/03 01:12:47;;;;;;;6.22;2.40;;;;;;;17.18;100.00;97984.75;1496070;96;21154;-72
2022/06/03 01:15:39;;;;;;;5.78;2.52;;;;;;;17.14;100.00;97983.64;1501144;93;21130;-72
2022/06/03 01:18:39;;;;;;;4.65;2.30;;;;;;;17.11;100.00;97974.60;1480490;95;21178;-72
2022/06/03 01:21:23;;;;;;;4.92;2.30;;;;;;;17.10;100.00;97965.30;1474106;97;21215;-71
2022/06/03 01:24:17;;;;;;;7.62;2.30;;;;;;;17.11;100.00;97951.95;1480045;97;21569;-72
2022/06/03 01:27:41;;;;;;;4.67;2.30;;;;;;;17.10;100.00;97953.02;1479824;97;21139;-72
2022/06/03 01:30:21;;;;;;;4.60;2.15;;;;;;;17.10;100.00;97955.75;1530845;93;21119;-71
2022/06/03 01:33:03;;;;;;;6.87;2.60;;;;;;;17.05;100.00;97943.72;1502893;95;21071;-71
2022/06/03 01:36:23;;;;;;;7.00;2.65;;;;;;;17.02;100.00;97945.61;1477212;94;21171;-72
2022/06/03 01:39:10;;;;;;;5.83;2.45;;;;;;;17.00;100.00;97946.97;1521057;94;21048;-72
2022/06/03 01:42:17;;;;;;;5.25;2.37;;;;;;;16.96;100.00;97944.47;1472055;97;21164;-72
2022/06/03 01:45:07;;;;;;;3.60;2.37;;;;;;;16.94;100.00;97938.45;1472216;97;21108;-72
2022/06/03 01:48:09;;;;;;;4.58;2.40;;;;;;;16.91;100.00;97928.06;1449983;99;21586;-72
2022/06/03 01:51:02;;;;;;;6.15;2.27;;;;;;;16.89;100.00;97917.40;1472263;97;21192;-73
2022/06/03 01:53:58;;;;;;;7.25;2.42;;;;;;;16.87;100.00;97904.05;1483841;90;21072;-73
2022/06/03 01:56:46;;;;;;;3.17;2.50;;;;;;;16.85;100.00;97893.91;1485401;97;21199;-72
2022/06/03 01:59:53;;;;;;;2.95;2.08;;;;;;;16.85;100.00;97884.91;1486042;92;21101;-72
2022/06/03 02:02:43;;;;;;;4.33;2.20;;;;;;;16.85;100.00;97876.16;1513636;93;21588;-72
2022/06/03 02:05:43;;;;;;;4.60;2.30;;;;;;;16.88;100.00;97874.28;1513584;93;21098;-73
2022/06/03 02:08:47;;;;;;;5.12;2.65;;;;;;;16.91;100.00;97863.39;1510908;95;21090;-72
2022/06/03 02:11:54;;;;;;;5.12;2.37;;;;;;;16.93;100.00;97854.91;1513603;95;21106;-73
2022/06/03 02:15:18;;;;;;;5.60;2.50;;;;;;;16.95;100.00;97848.11;1542105;93;21556;-72
2022/06/03 02:18:03;;;;;;;6.67;2.60;;;;;;;16.96;100.00;97844.28;1595025;88;21062;-72
2022/06/03 02:21:08;;;;;;;5.92;2.72;;;;;;;16.96;100.00;97853.02;1664375;86;21510;-73
2022/06/03 02:24:09;;;;;;;7.08;2.72;;;;;;;16.97;100.00;97856.05;1664525;85;21012;-72
2022/06/03 02:27:29;;;;;;;6.10;2.52;;;;;;;16.98;100.00;97854.42;1664600;85;21020;-71
2022/06/03 02:30:47;;;;;;;7.50;3.10;;;;;;;16.99;100.00;97841.58;1664537;85;21004;-72
2022/06/03 02:33:54;;;;;;;4.10;2.35;;;;;;;17.03;100.00;97850.34;1664418;85;21087;-71
2022/06/03 02:36:45;;;;;;;5.05;2.42;;;;;;;17.06;100.00;97850.34;1663199;86;21048;-71
2022/06/03 02:39:29;;;;;;;4.75;2.20;;;;;;;17.10;100.00;97856.09;1701571;83;21009;-72
2022/06/03 02:42:26;;;;;;;6.75;2.58;;;;;;;17.13;100.00;97862.39;1723816;83;21004;-70
2022/06/03 02:45:22;;;;;;;5.37;2.27;;;;;;;17.14;100.00;97869.48;1723900;83;21008;-71
2022/06/03 02:48:28;;;;;;;5.55;2.70;;;;;;;17.17;100.00;97867.59;1721449;83;20993;-71
2022/06/03 02:51:37;;;;;;;6.10;2.50;;;;;;;17.21;100.00;97873.63;1724853;82;21049;-72
2022/06/03 02:54:24;;;;;;;5.65;2.45;;;;;;;17.24;100.00;97877.72;1759618;81;21028;-72
2022/06/03 02:57:05;;;;;;;7.22;2.50;;;;;;;17.27;100.00;97875.27;1722761;83;21046;-71
2022/06/03 02:59:50;;;;;;;6.67;2.60;;;;;;;17.31;100.00;97886.48;1759460;81;21527;-73
2022/06/03 03:02:41;;;;;;;5.78;2.15;;;;;;;17.36;100.00;97881.59;1722868;83;21604;-71
2022/06/03 03:05:39;;;;;;;5.62;2.42;;;;;;;17.41;100.00;97887.08;1759510;81;21511;-72
2022/06/03 03:08:29;;;;;;;7.33;2.60;;;;;;;17.48;100.00;97893.66;1722751;83;21077;-70
2022/06/03 03:11:31;;;;;;;3.85;2.45;;;;;;;17.53;100.00;97907.31;1759168;81;21033;-72
2022/06/03 03:14:26;;;;;;;3.40;2.37;;;;;;;17.58;100.00;97915.00;1722842;83;21065;-72
2022/06/03 03:17:16;;;;;;;3.80;2.42;;;;;;;17.63;100.00;97921.83;1759637;81;21009;-72
2022/06/03 03:19:56;;;;;;;7.28;2.55;;;;;;;17.68;100.00;97931.15;1723212;83;20994;-71
2022/06/03 03:22:49;;;;;;;6.47;2.85;;;;;;;17.73;100.00;97944.28;1738653;82;20986;-72
2022/06/03 03:25:40;;;;;;;6.92;2.65;;;;;;;17.76;100.00;97946.48;1723275;82;21054;-72
2022/06/03 03:28:40;;;;;;;7.17;2.90;;;;;;;17.82;100.00;97956.88;1698228;84;21023;-71
2022/06/03 03:31:15;;;;;;;7.10;2.52;;;;;;;17.89;100.00;97966.23;1715797;84;21099;-71
2022/06/03 03:34:08;;;;;;;5.28;2.50;;;;;;;17.95;100.00;97980.98;1716997;84;21035;-72
2022/06/03 03:37:12;;;;;;;5.55;2.65;;;;;;;18.04;100.00;97992.22;1714803;84;21043;-71
2022/06/03 03:40:19;;;;;;;8.05;2.75;;;;;;;18.12;100.00;97994.44;1682301;84;21016;-72
2022/06/03 03:43:15;;;;;;;8.08;2.70;;;;;;;18.24;100.00;97998.83;1603528;89;21082;-71
2022/06/03 03:46:20;;;;;;;9.00;2.70;;;;;;;18.32;100.00;98011.98;1603510;89;21027;-71
2022/06/03 03:49:05;;;;;;;8.05;3.08;;;;;;;18.39;100.00;98033.87;1625675;88;21134;-72
2022/06/03 03:51:54;;;;;;;6.05;2.92;;;;;;;18.47;100.00;98057.16;1626088;88;21124;-70
2022/06/03 03:54:58;;;;;;;6.22;2.40;;;;;;;18.54;100.00;98072.77;1602370;88;21106;-72
2022/06/03 03:57:48;;;;;;;4.17;2.40;;;;;;;18.63;100.00;98088.12;1591971;90;21543;-71
2022/06/03 04:00:48;;;;;;;7.08;2.77;;;;;;;18.73;100.00;98101.83;1589307;90;21025;-72
2022/06/03 04:03:43;;;;;;;5.58;2.70;;;;;;;18.83;100.00;98117.46;1595258;89;21046;-72
2022/06/03 04:06:31;;;;;;;10.85;2.77;;;;;;;18.91;100.00;98140.20;1603164;88;21079;-72
2022/06/03 04:09:28;;;;;;;7.97;3.22;;;;;;;19.01;100.00;98161.30;1607439;89;21159;-71
2022/06/03 04:12:30;;;;;;;5.55;2.42;;;;;;;19.13;100.00;98176.11;1532071;94;21109;-71
2022/06/03 04:15:48;;;;;;;5.10;3.00;;;;;;;19.24;100.00;98196.11;1529538;94;21064;-72
2022/06/03 04:18:27;;;;;;;4.12;2.50;;;;;;;19.35;100.00;98232.00;1506561;90;21630;-71
2022/06/03 04:21:28;;;;;;;8.23;2.90;;;;;;;19.50;100.00;98275.06;1507063;95;21082;-72
2022/06/03 04:24:07;;;;;;;4.83;2.40;;;;;;;19.66;100.00;98308.24;1445977;99;21161;-73
2022/06/03 04:27:20;;;;;;;7.25;2.90;;;;;;;19.85;100.00;98337.92;1445922;95;21165;-73
2022/06/03 04:30:22;;;;;;;7.23;2.90;;;;;;;20.00;100.00;98371.38;1445892;99;21705;-71
2022/06/03 04:33:28;;;;;;;9.93;3.47;;;;;;;20.25;100.00;98389.77;1445990;99;21704;-73
2022/06/03 04:36:37;;;;;;;8.85;3.10;;;;;;;20.54;100.00;98422.13;1464511;98;21121;-72
2022/06/03 04:39:38;;;;;;;9.13;3.02;;;;;;;20.78;100.00;98473.23;1456565;96;21167;-72
2022/06/03 04:42:13;;;;;;;7.05;3.02;;;;;;;21.04;100.00;98512.49;1376056;104;21654;-71
2022/06/03 04:45:22;;;;;;;7.53;2.83;;;;;;;21.28;100.00;98559.99;1392466;101;21699;-72
2022/06/03 04:48:28;;;;;;;7.60;3.15;;;;;;;21.37;100.00;98607.27;1431854;100;21134;-73
2022/06/03 04:51:12;;;;;;;17.02;8.98;;;;;;;21.56;100.00;98630.91;1376357;103;21219;-75
2022/06/03 04:53:55;;;;;;;15.48;7.05;;;;;;;21.77;100.00;98635.00;1368866;105;21151;-75
2022/06/03 04:56:58;;;;;;;16.27;8.65;;;;;;;21.95;100.00;98628.87;1366291;105;21617;-74
2022/06/03 04:59:57;;;;;;;109.15;97.30;;;;;;;22.14;100.00;98598.81;1332040;108;21210;-74
2022/06/03 05:03:09;;;;;;;30.02;21.60;;;;;;;22.34;100.00;98592.97;1403453;102;21138;-74
2022/06/03 05:06:08;;;;;;;13.30;6.50;;;;;;;22.58;100.00;98613.77;1419290;101;21210;-75
2022/06/03 05:09:31;;;;;;;17.80;11.55;;;;;;;22.78;100.00;98665.16;1449965;98;21091;-75
2022/06/03 05:12:14;;;;;;;10.43;5.72;;;;;;;22.88;100.00;98753.84;1470053;96;21207;-74
2022/06/03 05:15:09;;;;;;;14.18;5.85;;;;;;;23.07;100.00;98787.11;1399982;102;21191;-76
2022/06/03 05:17:59;;;;;;;14.23;6.08;;;;;;;23.25;100.00;98839.42;1409472;101;21207;-76
2022/06/03 05:21:05;;;;;;;9.30;5.37;;;;;;;23.35;100.00;98928.16;1442813;99;21578;-75
2022/06/03 05:23:50;;;;;;;12.23;5.30;;;;;;;23.36;100.00;98964.30;1419574;101;21138;-73
2022/06/03 05:27:01;;;;;;;12.25;5.60;;;;;;;23.56;100.00;98951.78;1399337;101;21622;-76
2022/06/03 05:29:45;;;;;;;10.88;6.03;;;;;;;23.83;100.00;98956.94;1417087;101;21159;-72
2022/06/03 05:32:44;;;;;;;14.03;6.78;;;;;;;24.14;100.00;98981.58;1416633;101;21141;-74
2022/06/03 05:35:36;;;;;;;16.02;7.83;;;;;;;24.42;100.00;99010.38;1423876;100;21213;-73
2022/06/03 05:38:09;;;;;;;19.98;7.50;;;;;;;24.67;100.00;99062.45;1431910;100;21101;-73
2022/06/03 05:40:51;;;;;;;18.27;9.80;;;;;;;24.88;100.00;99110.66;1433088;100;21201;-74
2022/06/03 05:43:42;;;;;;;19.87;10.20;;;;;;;25.05;100.00;99153.13;1462137;98;21115;-75
2022/06/03 05:46:17;;;;;;;16.65;8.38;;;;;;;25.20;100.00;99187.02;1462495;98;21092;-76
2022/06/03 05:49:26;;;;;;;19.50;7.65;;;;;;;25.46;100.00;99213.14;1436880;100;21172;-75
2022/06/03 05:52:44;;;;;;;12.53;6.25;;;;;;;25.64;100.00;99221.81;1426903;100;21602;-74
2022/06/03 05:55:22;;;;;;;13.38;5.50;;;;;;;25.87;100.00;99257.59;1434161;99;21109;-76
2022/06/03 05:58:16;;;;;;;9.40;4.58;;;;;;;26.01;100.00;99284.94;1440617;99;21156;-76
2022/06/03 06:01:11;;;;;;;10.78;6.22;;;;;;;25.95;100.00;99327.63;1421103;101;21133;-74
2022/06/03 06:03:56;;;;;;;10.15;5.03;;;;;;;25.83;100.00;99364.52;1405593;101;21220;-77
2022/06/03 06:06:52;;;;;;;12.93;5.65;;;;;;;25.84;100.00;99343.47;1398681;102;21665;-76
2022/06/03 06:09:45;;;;;;;10.05;5.05;;;;;;;25.88;100.00;99321.00;1417294;101;21117;-75
2022/06/03 06:12:28;;;;;;;9.98;4.95;;;;;;;26.04;100.00;99319.52;1403233;99;21124;-72
2022/06/03 06:15:33;;;;;;;9.90;4.90;;;;;;;26.20;100.00;99335.44;1420261;101;21150;-73
2022/06/03 06:18:15;;;;;;;13.15;5.17;;;;;;;26.17;100.00;99373.41;1415393;101;21126;-75
2022/06/03 06:21:00;;;;;;;9.95;5.70;;;;;;;26.31;100.00;99369.69;1416608;100;21166;-76
2022/06/03 06:23:45;;;;;;;10.93;5.45;;;;;;;26.49;100.00;99388.91;1444433;95;21125;-73
2022/06/03 06:26:42;;;;;;;12.15;5.72;;;;;;;26.60;100.00;99420.13;1464353;98;21578;-75
2022/06/03 06:29:23;;;;;;;11.25;5.45;;;;;;;26.63;100.00;99451.47;1464647;98;21133;-73
2022/06/03 06:32:19;;;;;;;15.35;7.65;;;;;;;26.70;100.00;99461.66;1462437;97;21166;-71
2022/06/03 06:35:07;;;;;;;15.43;6.80;;;;;;;26.99;100.00;99466.34;1480756;97;21108;-74
2022/06/03 06:37:56;;;;;;;14.18;6.60;;;;;;;27.36;100.00;99487.61;1423135;101;21105;-77
2022/06/03 06:40:48;;;;;;;15.40;6.25;;;;;;;27.68;100.00;99516.64;1413993;99;21818;-78
2022/06/03 06:43:57;;;;;;;14.40;6.95;;;;;;;27.92;100.00;99547.17;1421554;100;21171;-79
2022/06/03 06:47:02;;;;;;;17.92;9.15;;;;;;;28.19;100.00;99571.55;1462084;96;21119;-77
2022/06/03 06:49:36;;;;;;;13.80;6.50;;;;;;;28.33;100.00;99614.15;1523318;94;22282;-78
2022/06/03 06:52:50;;;;;;;22.22;12.70;;;;;;;28.47;100.00;99640.61;1549379;91;21065;-76
2022/06/03 06:55:37;;;;;;;17.20;7.25;;;;;;;28.58;100.00;99635.79;1571118;90;21113;-80
2022/06/03 06:58:11;;;;;;;11.60;6.40;;;;;;;28.85;100.00;99635.66;1531697;92;21103;-76
2022/06/03 07:00:40;;;;;;;17.48;6.65;;;;;;;29.11;100.00;99716.75;1496661;94;21315;-78
2022/06/03 07:03:27;;;;;;;18.50;6.33;;;;;;;29.38;100.00;99885.13;1496127;95;21515;-76
2022/06/03 07:06:01;;;;;;;17.67;6.78;;;;;;;29.51;100.00;100034.20;1493487;96;21053;-77
2022/06/03 07:08:45;;;;;;;17.40;8.33;;;;;;;29.63;100.00;100142.42;1495814;96;21148;-76
2022/06/03 07:11:36;;;;;;;20.85;10.65;;;;;;;29.69;100.00;100184.98;1501920;95;21082;-74
2022/06/03 07:14:07;;;;;;;19.77;10.10;;;;;;;29.82;100.00;100198.80;1509511;92;21246;-74
2022/06/03 07:20:00;;;;;;;19.90;9.75;;;;;;;30.27;100.00;100203.56;1551174;92;21074;-75
2022/06/03 07:22:51;;;;;;;18.52;9.15;;;;;;;30.35;100.00;100209.06;1551223;92;21080;-77
2022/06/03 07:25:29;;;;;;;20.40;8.45;;;;;;;30.49;100.00;100212.77;1541290;92;21142;-76
2022/06/03 07:28:13;;;;;;;26.30;17.20;;;;;;;30.76;100.00;100206.53;1604323;89;21575;-77
2022/06/03 07:30:57;;;;;;;23.05;13.30;;;;;;;30.95;100.00;100211.29;1604489;89;21069;-75
2022/06/03 07:33:35;;;;;;;16.75;8.85;;;;;;;31.02;100.00;100215.38;1596229;89;21091;-74
2022/06/03 07:36:35;;;;;;;17.82;7.40;;;;;;;31.17;100.00;100224.05;1596569;89;21119;-77
2022/06/03 07:39:30;;;;;;;17.17;7.58;;;;;;;31.35;100.00;100226.54;1538381;89;21070;-77
2022/06/03 07:42:26;;;;;;;16.35;7.30;;;;;;;31.48;100.00;100224.09;1576842;90;21077;-74
2022/06/03 07:45:06;;;;;;;11.03;6.12;;;;;;;31.60;100.00;100237.86;1537584;92;21120;-79
2022/06/03 07:47:35;;;;;;;14.15;6.83;;;;;;;31.76;100.00;100231.41;1536280;93;21605;-75
2022/06/03 07:50:11;;;;;;;17.48;8.28;;;;;;;31.90;100.00;100240.39;1535204;93;21094;-77
2022/06/03 07:52:54;;;;;;;19.17;9.48;;;;;;;32.01;100.00;100240.45;1479258;95;21137;-74
2022/06/03 07:55:24;;;;;;;19.60;9.10;;;;;;;32.09;100.00;100241.16;1485002;97;21286;-75
2022/06/03 07:57:55;;;;;;;22.27;9.08;;;;;;;32.10;100.00;100239.19;1497997;96;22006;-77
2022/06/03 08:00:23;;;;;;;14.63;7.97;;;;;;;32.13;100.00;100239.97;1491216;94;21069;-74
2022/06/03 08:03:06;;;;;;;16.67;8.58;;;;;;;32.12;100.00;100248.94;1485942;96;21602;-73
2022/06/03 08:05:33;;;;;;;19.67;8.70;;;;;;;32.13;100.00;100250.58;1495956;96;21255;-76
2022/06/03 08:10:56;;;;;;;17.50;7.78;;;;;;;32.38;100.00;100255.97;1498452;95;21170;-78
2022/06/03 08:13:26;;;;;;;19.20;7.70;;;;;;;32.41;100.00;100251.97;1422045;101;21159;-76
2022/06/03 08:15:59;;;;;;;16.17;6.58;;;;;;;32.49;100.00;100254.05;1455006;97;21101;-77
2022/06/03 08:18:34;;;;;;;18.60;6.85;;;;;;;32.47;100.00;100253.50;1507808;95;21107;-78
2022/06/03 08:21:05;;;;;;;18.87;8.93;;;;;;;32.34;100.00;100248.77;1505303;95;21202;-80
2022/06/03 08:23:35;;;;;;;23.00;12.03;;;;;;;32.18;100.00;100251.05;1507323;95;21279;-77
2022/06/03 08:26:10;;;;;;;19.55;8.90;;;;;;;32.14;100.00;100238.84;1507134;95;21191;-74
2022/06/03 08:28:38;;;;;;;21.60;9.30;;;;;;;32.21;100.00;100239.25;1507167;95;21099;-77
2022/06/03 08:31:06;;;;;;;17.42;7.78;;;;;;;32.30;100.00;100250.55;1549227;92;21116;-75
2022/06/03 08:33:55;;;;;;;14.70;7.15;;;;;;;32.33;100.00;100253.55;1554898;91;21161;-73
2022/06/03 08:36:26;;;;;;;15.28;6.67;;;;;;;32.37;100.00;100249.55;1555497;92;21112;-74
2022/06/03 08:39:01;;;;;;;16.12;6.20;;;;;;;32.46;100.00;100246.84;1539796;93;21068;-76
2022/06/03 08:41:51;;;;;;;15.20;6.62;;;;;;;32.52;100.00;100242.78;1568877;91;21117;-78
2022/06/03 08:44:46;;;;;;;16.45;7.00;;;;;;;32.70;100.00;100246.61;1549761;92;21134;-76
2022/06/03 08:47:36;;;;;;;13.43;6.05;;;;;;;32.89;100.00;100250.66;1548665;93;21126;-74
2022/06/03 08:50:45;;;;;;;13.68;6.25;;;;;;;32.99;100.00;100253.22;1501563;96;21088;-73
2022/06/03 08:53:22;;;;;;;13.18;5.00;;;;;;;33.13;100.00;100258.81;1501303;96;21218;-76
2022/06/03 08:56:00;;;;;;;12.73;5.50;;;;;;;33.15;100.00;100266.87;1501302;96;21214;-76
2022/06/03 08:58:47;;;;;;;13.48;4.75;;;;;;;33.14;100.00;100275.85;1501253;96;21122;-79
2022/06/03 09:01:38;;;;;;;11.18;4.95;;;;;;;33.17;100.00;100265.42;1501834;94;21675;-78
2022/06/03 09:04:33;;;;;;;15.48;5.75;;;;;;;33.26;100.00;100273.31;1524239;94;21173;-77
2022/06/03 09:07:11;;;;;;;15.80;6.87;;;;;;;33.37;100.00;100285.67;1525246;94;21077;-78
2022/06/03 09:09:56;;;;;;;16.80;7.60;;;;;;;33.37;100.00;100290.70;1534593;91;21249;-78
2022/06/03 09:12:35;;;;;;;15.90;7.08;;;;;;;33.32;100.00;100288.59;1572174;90;21142;-76
2022/06/03 09:15:08;;;;;;;13.60;6.62;;;;;;;33.29;100.00;100290.08;1572900;91;21153;-75
2022/06/03 09:17:53;;;;;;;13.00;5.20;;;;;;;33.22;100.00;100288.27;1573049;91;21082;-77
2022/06/03 09:20:31;;;;;;;14.25;4.80;;;;;;;33.17;100.00;100297.64;1572428;91;21090;-74
2022/06/03 09:23:11;;;;;;;37.28;18.23;;;;;;;33.04;100.00;100297.06;1572448;90;21109;-76
2022/06/03 09:25:44;;;;;;;10.75;5.10;;;;;;;33.03;100.00;100304.65;1558737;92;21081;-76
2022/06/03 09:28:17;;;;;;;8.80;4.00;;;;;;;32.99;100.00;100300.83;1584919;90;21554;-78
2022/06/03 09:30:45;;;;;;;13.98;4.12;;;;;;;32.96;100.00;100307.63;1589948;90;21073;-75
2022/06/03 09:33:14;;;;;;;22.50;15.15;;;;;;;32.81;100.00;100306.84;1589652;90;21013;-77
2022/06/03 09:35:44;;;;;;;11.70;4.87;;;;;;;32.85;100.00;100316.27;1609201;88;21584;-79
2022/06/03 09:38:11;;;;;;;21.05;4.37;;;;;;;32.99;100.00;100319.58;1630207;88;21073;-75
2022/06/03 09:40:44;;;;;;;10.95;4.10;;;;;;;33.09;100.00;100306.75;1637081;87;21650;-74
2022/06/03 09:43:27;;;;;;;16.45;4.08;;;;;;;33.19;100.00;100305.15;1609370;88;21667;-76
2022/06/03 09:45:56;;;;;;;8.93;3.50;;;;;;;33.33;100.00;100311.28;1641349;87;21022;-73
2022/06/03 09:48:27;;;;;;;13.03;4.17;;;;;;;33.40;100.00;100303.27;1637385;87;21485;-74
2022/06/03 09:50:56;;;;;;;11.43;4.22;;;;;;;33.44;100.00;100298.66;1636689;88;21558;-77
2022/06/03 09:53:26;;;;;;;12.23;3.45;;;;;;;33.63;100.00;100295.09;1636219;88;21077;-75
2022/06/03 09:55:56;;;;;;;10.70;3.50;;;;;;;33.74;100.00;100295.67;1636184;88;21515;-75
2022/06/03 09:58:25;;;;;;;15.32;4.60;;;;;;;33.80;100.00;100299.16;1635168;88;21112;-75
2022/06/03 10:00:54;;;;;;;14.38;5.00;;;;;;;33.79;100.00;100296.94;1634998;88;21132;-77
2022/06/03 10:03:21;;;;;;;12.58;4.37;;;;;;;33.83;100.00;100295.14;1638132;87;21038;-77
2022/06/03 10:05:51;;;;;;;14.45;6.85;;;;;;;33.91;100.00;100288.50;1644416;87;21027;-74
2022/06/03 10:08:22;;;;;;;15.28;4.50;;;;;;;33.99;100.00;100292.75;1602911;89;21578;-77
2022/06/03 10:13:39;;;;;;;14.13;5.28;;;;;;;34.02;100.00;100303.33;1596884;89;21099;-76
2022/06/03 10:16:09;;;;;;;11.53;4.55;;;;;;;33.86;100.00;100295.09;1588573;90;21151;-76
2022/06/03 10:18:48;;;;;;;13.18;4.37;;;;;;;33.85;100.00;100290.03;1588087;90;21037;-75
2022/06/03 10:21:21;;;;;;;12.03;4.05;;;;;;;33.94;100.00;100290.08;1559032;91;21052;-76
2022/06/03 10:23:53;;;;;;;14.75;3.67;;;;;;;33.98;100.00;100301.48;1562372;92;21602;-74
2022/06/03 10:26:49;;;;;;;19.15;4.30;;;;;;;33.97;100.00;100292.83;1581270;91;21057;-75
2022/06/03 10:29:19;;;;;;;14.03;3.70;;;;;;;33.88;100.00;100300.38;1583503;91;21021;-76
2022/06/03 10:31:50;;;;;;;8.33;3.37;;;;;;;33.67;100.00;100305.94;1582963;91;21072;-74
2022/06/03 10:34:22;;;;;;;10.32;3.67;;;;;;;33.72;100.00;100299.95;1567744;91;21559;-75
2022/06/03 10:36:52;;;;;;;9.80;3.50;;;;;;;33.76;100.00;100295.36;1572635;90;21057;-75
2022/06/03 10:39:23;;;;;;;11.18;3.72;;;;;;;33.82;100.00;100294.91;1534800;93;21052;-75
2022/06/03 10:41:51;;;;;;;8.38;3.47;;;;;;;33.84;100.00;100298.80;1520185;93;21623;-78
2022/06/03 10:44:23;;;;;;;9.90;3.47;;;;;;;33.81;100.00;100295.22;1522419;94;21127;-77
2022/06/03 10:47:03;;;;;;;8.73;3.47;;;;;;;33.83;100.00;100296.55;1519126;94;21575;-76
2022/06/03 10:49:37;;;;;;;10.10;3.55;;;;;;;33.91;100.00;100293.55;1522180;94;21119;-76
2022/06/03 11:03:29;;;;;;;10.35;3.75;;;;;;;34.36;100.00;100283.60;1566818;91;21123;-73
2022/06/03 11:05:56;;;;;;;10.63;3.77;;;;;;;34.44;100.00;100277.78;1602404;88;21049;-75
2022/06/03 11:08:25;;;;;;;12.85;4.55;;;;;;;34.56;100.00;100279.34;1603641;89;21222;-77
2022/06/03 11:10:55;;;;;;;12.47;5.15;;;;;;;34.68;100.00;100277.31;1603180;88;21060;-76
2022/06/03 11:13:34;;;;;;;14.53;4.80;;;;;;;34.70;100.00;100267.20;1603903;89;21165;-79
2022/06/03 11:16:18;;;;;;;8.35;4.08;;;;;;;34.75;100.00;100268.45;1603844;89;21538;-76
2022/06/03 11:18:45;;;;;;;10.98;4.00;;;;;;;34.81;100.00;100276.95;1603981;88;21547;-78
2022/06/03 11:21:25;;;;;;;10.68;3.52;;;;;;;34.72;100.00;100281.14;1604053;89;21025;-76
2022/06/03 11:23:56;;;;;;;16.10;4.60;;;;;;;34.51;100.00;100290.77;1580351;91;21094;-74
2022/06/03 11:26:28;;;;;;;11.68;3.65;;;;;;;34.33;100.00;100270.21;1580549;91;21122;-76
2022/06/03 11:29:00;;;;;;;11.45;4.40;;;;;;;34.02;100.00;100275.28;1580194;90;21127;-76
2022/06/03 11:31:35;;;;;;;6.03;3.40;;;;;;;33.83;100.00;100272.70;1592044;89;21082;-76
2022/06/03 11:34:11;;;;;;;8.38;3.35;;;;;;;33.62;100.00;100265.97;1602534;90;21081;-76
2022/06/03 11:36:57;;;;;;;8.00;3.20;;;;;;;33.38;100.00;100262.09;1594269;90;21165;-76
2022/06/03 11:39:50;;;;;;;11.90;3.52;;;;;;;33.15;100.00;100255.11;1590382;90;21128;-79
2022/06/03 11:42:43;;;;;;;11.88;4.25;;;;;;;33.11;100.00;100261.04;1590206;90;21061;-76
2022/06/03 11:45:21;;;;;;;10.00;5.05;;;;;;;32.99;100.00;100264.97;1529946;93;21577;-76
2022/06/03 11:48:16;;;;;;;8.18;3.80;;;;;;;32.74;100.00;100253.22;1589965;90;21538;-77
2022/06/03 11:50:42;;;;;;;18.85;3.50;;;;;;;32.57;100.00;100250.25;1590670;90;21092;-76
2022/06/03 11:53:09;;;;;;;13.03;3.35;;;;;;;32.57;100.00;100254.45;1547697;93;21115;-75
2022/06/03 11:55:36;;;;;;;9.15;3.67;;;;;;;32.58;100.00;100258.88;1590196;90;21128;-76
2022/06/03 11:58:19;;;;;;;9.58;3.22;;;;;;;32.39;100.00;100252.01;1547869;90;21116;-77
2022/06/03 12:00:54;;;;;;;5.90;3.15;;;;;;;32.28;100.00;100252.80;1588637;90;21080;-78
2022/06/03 12:03:55;;;;;;;10.23;3.25;;;;;;;32.33;100.00;100254.09;1557926;92;21129;-80
2022/06/03 12:06:43;;;;;;;11.57;3.60;;;;;;;32.23;100.00;100256.55;1602315;89;21120;-75
2022/06/03 12:09:24;;;;;;;11.97;3.90;;;;;;;31.67;100.00;100259.82;1569346;90;21175;-76
2022/06/03 12:14:58;;;;;;;7.53;3.75;;;;;;;30.91;100.00;100256.28;1479305;96;21161;-73
2022/06/03 12:17:31;;;;;;;10.15;4.20;;;;;;;30.64;100.00;100248.84;1481079;97;21082;-73
2022/06/03 12:19:59;;;;;;;9.40;4.00;;;;;;;30.27;100.00;100238.42;1484574;96;21699;-73
2022/06/03 12:22:35;;;;;;;10.50;3.90;;;;;;;29.80;100.00;100247.89;1521705;94;21092;-73
2022/06/03 12:25:05;;;;;;;10.23;4.17;;;;;;;29.62;100.00;100239.66;1492384;95;21108;-77
2022/06/03 12:27:36;;;;;;;92.15;71.82;;;;;;;29.47;100.00;100237.86;1500503;95;21611;-75
2022/06/03 12:30:18;;;;;;;17.57;8.13;;;;;;;29.33;100.00;100234.09;1484448;97;21659;-78
2022/06/03 12:32:55;;;;;;;9.65;4.60;;;;;;;29.31;100.00;100226.59;1459588;98;21230;-78
2022/06/03 12:35:52;;;;;;;20.85;10.90;;;;;;;29.31;100.00;100227.99;1449891;99;21153;-74
2022/06/03 12:38:27;;;;;;;13.93;5.62;;;;;;;29.30;100.00;100223.53;1449955;99;21134;-79
2022/06/03 12:40:59;;;;;;;10.80;4.12;;;;;;;29.23;100.00;100232.78;1460711;96;21137;-72
2022/06/03 12:43:34;;;;;;;12.88;4.25;;;;;;;29.23;100.00;100225.25;1430857;100;21189;-75
2022/06/03 12:46:09;;;;;;;8.08;3.40;;;;;;;29.32;100.00;100218.49;1432520;98;21214;-76
2022/06/03 12:48:47;;;;;;;13.25;4.15;;;;;;;29.50;100.00;100221.97;1452539;99;21191;-74
2022/06/03 12:51:33;;;;;;;7.58;3.72;;;;;;;29.54;100.00;100229.17;1453189;99;21120;-75
2022/06/03 12:54:08;;;;;;;8.98;4.03;;;;;;;29.53;100.00;100219.14;1453137;99;21101;-73
2022/06/03 12:56:45;;;;;;;9.30;3.77;;;;;;;29.66;100.00;100218.46;1433710;100;21156;-73
2022/06/03 12:59:29;;;;;;;8.33;3.60;;;;;;;29.82;100.00;100212.73;1434415;100;21211;-73
2022/06/03 13:02:06;;;;;;;50.58;39.80;;;;;;;30.15;100.00;100202.59;1438373;98;21726;-72
2022/06/03 13:04:42;;;;;;;13.65;5.80;;;;;;;30.52;100.00;100219.15;1446304;99;21240;-76
2022/06/03 13:07:30;;;;;;;7.97;4.10;;;;;;;30.87;100.00;100227.31;1447007;99;21715;-76